sensor_id;sensor_type;location;lat;lon;timestamp;pressure;altitude;pressure_sealevel;temperature;humidity
44934;BME280;30667;43.614;1.442;2023-03-23T00:01:11;99575.44;;;15.54;100.00
44934;BME280;30667;43.614;1.442;2023-03-23T00:03:38;99588.44;;;15.39;91.66
44934;BME280;30667;43.614;1.442;2023-03-23T00:06:04;99595.94;;;15.07;100.00
44934;BME280;30667;43.614;1.442;2023-03-23T00:08:36;99584.59;;;15.49;93.74
44934;BME280;30667;43.614;1.442;2023-03-23T00:11:20;99571.47;;;15.51;100.00
44934;BME280;30667;43.614;1.442;2023-03-23T00:13:47;99572.25;;;15.34;96.32
44934;BME280;30667;43.614;1.442;2023-03-23T00:16:17;99573.72;;;15.32;96.99
44934;BME280;30667;43.614;1.442;2023-03-23T00:18:52;99567.78;;;15.56;98.89
44934;BME280;30667;43.614;1.442;2023-03-23T00:21:21;99565.19;;;15.59;97.72
44934;BME280;30667;43.614;1.442;2023-03-23T00:23:58;99567.75;;;15.47;99.99
44934;BME280;30667;43.614;1.442;2023-03-23T00:26:24;99564.09;;;15.25;100.00
44934;BME280;30667;43.614;1.442;2023-03-23T00:28:53;99571.25;;;15.04;98.73
44934;BME280;30667;43.614;1.442;2023-03-23T00:31:19;99559.25;;;15.31;100.00
44934;BME280;30667;43.614;1.442;2023-03-23T00:33:44;99570.31;;;15.00;100.00
44934;BME280;30667;43.614;1.442;2023-03-23T00:36:11;99567.84;;;14.72;100.00
44934;BME280;30667;43.614;1.442;2023-03-23T00:38:38;99569.84;;;14.58;100.00
44934;BME280;30667;43.614;1.442;2023-03-23T00:41:05;99570.06;;;14.30;100.00
44934;BME280;30667;43.614;1.442;2023-03-23T00:43:31;99569.69;;;14.54;100.00
44934;BME280;30667;43.614;1.442;2023-03-23T00:45:57;99565.31;;;14.84;100.00
44934;BME280;30667;43.614;1.442;2023-03-23T00:48:27;99566.44;;;15.01;100.00
44934;BME280;30667;43.614;1.442;2023-03-23T00:50:53;99562.81;;;15.40;100.00
44934;BME280;30667;43.614;1.442;2023-03-23T00:53:19;99573.59;;;14.70;100.00
44934;BME280;30667;43.614;1.442;2023-03-23T00:55:47;99570.53;;;14.63;100.00
44934;BME280;30667;43.614;1.442;2023-03-23T00:58:13;99562.78;;;14.48;100.00
44934;BME280;30667;43.614;1.442;2023-03-23T01:00:40;99560.25;;;14.20;100.00
44934;BME280;30667;43.614;1.442;2023-03-23T01:03:06;99564.66;;;14.39;100.00
44934;BME280;30667;43.614;1.442;2023-03-23T01:05:36;99564.69;;;14.07;100.00
44934;BME280;30667;43.614;1.442;2023-03-23T01:08:03;99564.13;;;13.96;100.00
44934;BME280;30667;43.614;1.442;2023-03-23T01:10:30;99568.03;;;13.81;100.00
44934;BME280;30667;43.614;1.442;2023-03-23T01:13:00;99561.03;;;13.89;100.00
44934;BME280;30667;43.614;1.442;2023-03-23T01:15:28;99558.28;;;13.80;100.00
44934;BME280;30667;43.614;1.442;2023-03-23T01:17:53;99555.75;;;14.15;100.00
44934;BME280;30667;43.614;1.442;2023-03-23T01:20:19;99565.41;;;13.99;100.00
44934;BME280;30667;43.614;1.442;2023-03-23T01:22:45;99557.25;;;14.30;100.00
44934;BME280;30667;43.614;1.442;2023-03-23T01:25:11;99556.19;;;13.77;100.00
44934;BME280;30667;43.614;1.442;2023-03-23T01:27:37;99559.66;;;13.69;100.00
44934;BME280;30667;43.614;1.442;2023-03-23T01:30:04;99558.91;;;13.55;100.00
44934;BME280;30667;43.614;1.442;2023-03-23T01:32:31;99556.41;;;13.67;100.00
44934;BME280;30667;43.614;1.442;2023-03-23T01:34:56;99556.53;;;13.39;100.00
44934;BME280;30667;43.614;1.442;2023-03-23T01:37:22;99562.69;;;13.45;100.00
44934;BME280;30667;43.614;1.442;2023-03-23T01:39:57;99555.63;;;13.30;100.00
44934;BME280;30667;43.614;1.442;2023-03-23T01:42:31;99558.97;;;13.27;100.00
44934;BME280;30667;43.614;1.442;2023-03-23T01:47:53;99552.13;;;13.43;100.00
44934;BME280;30667;43.614;1.442;2023-03-23T01:50:22;99548.53;;;13.20;100.00
44934;BME280;30667;43.614;1.442;2023-03-23T01:52:51;99545.13;;;13.15;100.00
44934;BME280;30667;43.614;1.442;2023-03-23T01:55:19;99554.31;;;13.41;100.00
44934;BME280;30667;43.614;1.442;2023-03-23T01:57:45;99544.97;;;13.34;100.00
44934;BME280;30667;43.614;1.442;2023-03-23T02:00:12;99544.44;;;13.68;100.00
44934;BME280;30667;43.614;1.442;2023-03-23T02:02:47;99540.63;;;13.47;100.00
44934;BME280;30667;43.614;1.442;2023-03-23T02:05:19;99539.81;;;13.32;100.00
44934;BME280;30667;43.614;1.442;2023-03-23T02:07:47;99533.22;;;13.24;100.00
44934;BME280;30667;43.614;1.442;2023-03-23T02:10:14;99542.41;;;13.51;100.00
44934;BME280;30667;43.614;1.442;2023-03-23T02:12:39;99542.78;;;13.22;100.00
44934;BME280;30667;43.614;1.442;2023-03-23T02:15:05;99538.28;;;13.03;100.00
44934;BME280;30667;43.614;1.442;2023-03-23T02:17:57;99549.41;;;12.93;100.00
44934;BME280;30667;43.614;1.442;2023-03-23T02:20:39;99542.78;;;12.85;100.00
44934;BME280;30667;43.614;1.442;2023-03-23T02:26:27;99542.78;;;12.85;100.00
44934;BME280;30667;43.614;1.442;2023-03-23T02:36:44;99516.22;;;12.82;100.00
44934;BME280;30667;43.614;1.442;2023-03-23T02:39:34;99517.56;;;12.71;100.00
44934;BME280;30667;43.614;1.442;2023-03-23T02:42:05;99517.06;;;12.83;100.00
44934;BME280;30667;43.614;1.442;2023-03-23T02:44:34;99512.41;;;12.83;100.00
44934;BME280;30667;43.614;1.442;2023-03-23T02:47:04;99514.22;;;12.88;100.00
44934;BME280;30667;43.614;1.442;2023-03-23T02:49:32;99521.63;;;12.96;100.00
44934;BME280;30667;43.614;1.442;2023-03-23T02:52:02;99520.03;;;12.95;100.00
44934;BME280;30667;43.614;1.442;2023-03-23T02:54:29;99530.72;;;12.78;100.00
44934;BME280;30667;43.614;1.442;2023-03-23T02:56:56;99527.91;;;12.69;100.00
44934;BME280;30667;43.614;1.442;2023-03-23T02:59:22;99531.25;;;12.66;100.00
44934;BME280;30667;43.614;1.442;2023-03-23T03:01:57;99526.78;;;13.20;100.00
44934;BME280;30667;43.614;1.442;2023-03-23T03:04:25;99525.88;;;13.25;100.00
44934;BME280;30667;43.614;1.442;2023-03-23T03:11:53;99513.50;;;12.82;100.00
44934;BME280;30667;43.614;1.442;2023-03-23T03:14:26;99510.63;;;12.65;100.00
44934;BME280;30667;43.614;1.442;2023-03-23T03:17:33;99500.38;;;12.62;100.00
44934;BME280;30667;43.614;1.442;2023-03-23T03:20:03;99500.84;;;12.78;100.00
44934;BME280;30667;43.614;1.442;2023-03-23T03:22:33;99497.97;;;12.60;100.00
44934;BME280;30667;43.614;1.442;2023-03-23T03:25:03;99494.25;;;12.56;100.00
44934;BME280;30667;43.614;1.442;2023-03-23T03:27:30;99495.94;;;12.80;100.00
44934;BME280;30667;43.614;1.442;2023-03-23T03:29:59;99495.97;;;12.66;100.00
44934;BME280;30667;43.614;1.442;2023-03-23T03:32:32;99500.53;;;12.93;100.00
44934;BME280;30667;43.614;1.442;2023-03-23T03:35:02;99501.47;;;13.11;100.00
44934;BME280;30667;43.614;1.442;2023-03-23T03:37:33;99501.38;;;12.80;100.00
44934;BME280;30667;43.614;1.442;2023-03-23T03:40:04;99503.50;;;12.69;100.00
44934;BME280;30667;43.614;1.442;2023-03-23T03:42:37;99491.19;;;12.71;100.00
44934;BME280;30667;43.614;1.442;2023-03-23T03:45:02;99494.81;;;12.81;100.00
44934;BME280;30667;43.614;1.442;2023-03-23T03:47:28;99495.88;;;12.94;100.00
44934;BME280;30667;43.614;1.442;2023-03-23T03:49:53;99501.06;;;12.81;100.00
44934;BME280;30667;43.614;1.442;2023-03-23T03:52:18;99501.53;;;12.97;100.00
44934;BME280;30667;43.614;1.442;2023-03-23T03:54:44;99505.38;;;12.82;100.00
44934;BME280;30667;43.614;1.442;2023-03-23T03:57:10;99513.22;;;12.84;100.00
44934;BME280;30667;43.614;1.442;2023-03-23T03:59:35;99509.84;;;12.64;100.00
44934;BME280;30667;43.614;1.442;2023-03-23T04:02:00;99507.22;;;12.59;100.00
44934;BME280;30667;43.614;1.442;2023-03-23T04:04:26;99520.38;;;12.52;100.00
44934;BME280;30667;43.614;1.442;2023-03-23T04:06:52;99513.22;;;12.84;100.00
44934;BME280;30667;43.614;1.442;2023-03-23T04:09:17;99514.16;;;12.65;100.00
44934;BME280;30667;43.614;1.442;2023-03-23T04:11:44;99511.34;;;12.57;100.00
44934;BME280;30667;43.614;1.442;2023-03-23T04:14:10;99517.38;;;12.53;100.00
44934;BME280;30667;43.614;1.442;2023-03-23T04:16:36;99508.44;;;12.53;100.00
44934;BME280;30667;43.614;1.442;2023-03-23T04:19:01;99512.59;;;12.87;100.00
44934;BME280;30667;43.614;1.442;2023-03-23T04:21:27;99511.34;;;12.70;100.00
44934;BME280;30667;43.614;1.442;2023-03-23T04:23:56;99513.00;;;12.94;100.00
44934;BME280;30667;43.614;1.442;2023-03-23T04:26:26;99518.44;;;12.94;100.00
44934;BME280;30667;43.614;1.442;2023-03-23T04:28:54;99519.81;;;13.05;100.00
44934;BME280;30667;43.614;1.442;2023-03-23T04:31:20;99532.25;;;13.06;100.00
44934;BME280;30667;43.614;1.442;2023-03-23T04:33:50;99530.22;;;12.76;100.00
44934;BME280;30667;43.614;1.442;2023-03-23T04:36:18;99541.06;;;12.76;100.00
44934;BME280;30667;43.614;1.442;2023-03-23T04:38:43;99545.66;;;12.89;100.00
44934;BME280;30667;43.614;1.442;2023-03-23T04:41:09;99557.78;;;12.69;100.00
44934;BME280;30667;43.614;1.442;2023-03-23T04:43:34;99567.84;;;12.68;100.00
44934;BME280;30667;43.614;1.442;2023-03-23T04:46:07;99575.28;;;12.63;100.00
44934;BME280;30667;43.614;1.442;2023-03-23T04:48:34;99575.38;;;12.58;100.00
44934;BME280;30667;43.614;1.442;2023-03-23T04:51:03;99575.69;;;12.56;100.00
44934;BME280;30667;43.614;1.442;2023-03-23T04:53:33;99578.19;;;12.52;100.00
44934;BME280;30667;43.614;1.442;2023-03-23T04:55:58;99575.66;;;12.70;100.00
44934;BME280;30667;43.614;1.442;2023-03-23T04:58:26;99584.13;;;12.68;100.00
44934;BME280;30667;43.614;1.442;2023-03-23T05:00:53;99576.41;;;13.12;100.00
44934;BME280;30667;43.614;1.442;2023-03-23T05:03:19;99585.00;;;13.05;100.00
44934;BME280;30667;43.614;1.442;2023-03-23T05:05:45;99585.59;;;12.75;100.00
44934;BME280;30667;43.614;1.442;2023-03-23T05:08:19;99575.81;;;13.01;100.00
44934;BME280;30667;43.614;1.442;2023-03-23T05:10:56;99580.09;;;12.80;100.00
44934;BME280;30667;43.614;1.442;2023-03-23T05:13:21;99576.97;;;12.72;100.00
44934;BME280;30667;43.614;1.442;2023-03-23T05:15:47;99579.59;;;12.64;100.00
44934;BME280;30667;43.614;1.442;2023-03-23T05:18:13;99584.41;;;12.81;100.00
44934;BME280;30667;43.614;1.442;2023-03-23T05:20:39;99588.13;;;12.71;100.00
44934;BME280;30667;43.614;1.442;2023-03-23T05:23:06;99593.25;;;12.72;100.00
44934;BME280;30667;43.614;1.442;2023-03-23T05:25:32;99593.56;;;12.57;100.00
44934;BME280;30667;43.614;1.442;2023-03-23T05:28:02;99598.91;;;12.62;100.00
44934;BME280;30667;43.614;1.442;2023-03-23T05:30:28;99602.81;;;12.56;100.00
44934;BME280;30667;43.614;1.442;2023-03-23T05:32:55;99608.25;;;12.56;100.00
44934;BME280;30667;43.614;1.442;2023-03-23T05:35:20;99599.69;;;12.63;100.00
44934;BME280;30667;43.614;1.442;2023-03-23T05:37:45;99596.56;;;12.56;100.00
44934;BME280;30667;43.614;1.442;2023-03-23T05:40:12;99594.56;;;12.47;100.00
44934;BME280;30667;43.614;1.442;2023-03-23T05:42:38;99594.06;;;12.45;100.00
44934;BME280;30667;43.614;1.442;2023-03-23T05:45:07;99593.84;;;12.42;100.00
44934;BME280;30667;43.614;1.442;2023-03-23T05:47:34;99588.03;;;12.48;100.00
44934;BME280;30667;43.614;1.442;2023-03-23T05:49:59;99595.88;;;12.50;100.00
44934;BME280;30667;43.614;1.442;2023-03-23T05:52:26;99593.25;;;12.45;100.00
44934;BME280;30667;43.614;1.442;2023-03-23T05:54:52;99593.66;;;12.52;100.00
44934;BME280;30667;43.614;1.442;2023-03-23T05:57:18;99599.91;;;12.52;100.00
44934;BME280;30667;43.614;1.442;2023-03-23T05:59:47;99595.47;;;12.57;100.00
44934;BME280;30667;43.614;1.442;2023-03-23T06:02:12;99599.09;;;12.66;100.00
44934;BME280;30667;43.614;1.442;2023-03-23T06:04:39;99593.84;;;12.56;100.00
44934;BME280;30667;43.614;1.442;2023-03-23T06:07:07;99595.38;;;12.48;100.00
44934;BME280;30667;43.614;1.442;2023-03-23T06:09:32;99594.47;;;12.52;100.00
44934;BME280;30667;43.614;1.442;2023-03-23T06:11:58;99599.09;;;12.66;100.00
44934;BME280;30667;43.614;1.442;2023-03-23T06:14:23;99595.47;;;12.57;100.00
44934;BME280;30667;43.614;1.442;2023-03-23T06:16:49;99605.53;;;12.56;100.00
44934;BME280;30667;43.614;1.442;2023-03-23T06:19:14;99610.16;;;12.69;100.00
44934;BME280;30667;43.614;1.442;2023-03-23T06:21:41;99615.97;;;12.63;100.00
44934;BME280;30667;43.614;1.442;2023-03-23T06:24:07;99616.69;;;12.68;100.00
44934;BME280;30667;43.614;1.442;2023-03-23T06:26:35;99631.25;;;12.59;100.00
44934;BME280;30667;43.614;1.442;2023-03-23T06:29:02;99638.69;;;12.53;100.00
44934;BME280;30667;43.614;1.442;2023-03-23T06:31:30;99649.03;;;12.51;100.00
44934;BME280;30667;43.614;1.442;2023-03-23T06:33:56;99660.41;;;12.53;100.00
44934;BME280;30667;43.614;1.442;2023-03-23T06:36:21;99661.19;;;12.53;100.00
44934;BME280;30667;43.614;1.442;2023-03-23T06:38:47;99655.09;;;12.76;100.00
44934;BME280;30667;43.614;1.442;2023-03-23T06:41:13;99651.47;;;12.80;100.00
44934;BME280;30667;43.614;1.442;2023-03-23T06:43:39;99654.16;;;13.08;100.00
44934;BME280;30667;43.614;1.442;2023-03-23T06:46:07;99650.16;;;12.92;100.00
44934;BME280;30667;43.614;1.442;2023-03-23T06:48:33;99653.97;;;12.90;100.00
44934;BME280;30667;43.614;1.442;2023-03-23T06:50:58;99661.94;;;13.15;100.00
44934;BME280;30667;43.614;1.442;2023-03-23T06:53:24;99667.56;;;13.69;100.00
44934;BME280;30667;43.614;1.442;2023-03-23T06:55:49;99674.03;;;14.72;100.00
44934;BME280;30667;43.614;1.442;2023-03-23T06:58:15;99676.53;;;14.37;100.00
44934;BME280;30667;43.614;1.442;2023-03-23T07:00:41;99673.09;;;13.77;100.00
44934;BME280;30667;43.614;1.442;2023-03-23T07:03:07;99678.84;;;13.76;100.00
44934;BME280;30667;43.614;1.442;2023-03-23T07:05:34;99690.19;;;13.41;100.00
44934;BME280;30667;43.614;1.442;2023-03-23T07:08:01;99695.53;;;13.47;100.00
44934;BME280;30667;43.614;1.442;2023-03-23T07:10:27;99684.72;;;13.69;100.00
44934;BME280;30667;43.614;1.442;2023-03-23T07:12:53;99686.59;;;13.69;100.00
44934;BME280;30667;43.614;1.442;2023-03-23T07:15:19;99690.97;;;13.56;100.00
44934;BME280;30667;43.614;1.442;2023-03-23T07:17:44;99692.00;;;13.46;100.00
44934;BME280;30667;43.614;1.442;2023-03-23T07:20:11;99689.44;;;13.63;100.00
44934;BME280;30667;43.614;1.442;2023-03-23T07:22:36;99687.84;;;13.62;100.00
44934;BME280;30667;43.614;1.442;2023-03-23T07:25:03;99699.53;;;13.63;100.00
44934;BME280;30667;43.614;1.442;2023-03-23T07:27:30;99699.78;;;13.75;100.00
44934;BME280;30667;43.614;1.442;2023-03-23T07:29:56;99705.47;;;13.88;100.00
44934;BME280;30667;43.614;1.442;2023-03-23T07:32:23;99710.63;;;13.89;100.00
44934;BME280;30667;43.614;1.442;2023-03-23T07:34:48;99716.78;;;13.81;100.00
44934;BME280;30667;43.614;1.442;2023-03-23T07:37:13;99714.63;;;13.69;100.00
44934;BME280;30667;43.614;1.442;2023-03-23T07:39:39;99716.88;;;13.90;100.00
44934;BME280;30667;43.614;1.442;2023-03-23T07:42:05;99713.00;;;14.05;100.00
44934;BME280;30667;43.614;1.442;2023-03-23T07:44:32;99723.06;;;14.49;100.00
44934;BME280;30667;43.614;1.442;2023-03-23T07:46:57;99723.13;;;14.13;100.00
44934;BME280;30667;43.614;1.442;2023-03-23T07:49:23;99725.56;;;13.78;100.00
44934;BME280;30667;43.614;1.442;2023-03-23T07:51:48;99731.66;;;13.61;100.00
44934;BME280;30667;43.614;1.442;2023-03-23T07:54:14;99721.34;;;13.72;100.00
44934;BME280;30667;43.614;1.442;2023-03-23T07:56:41;99727.69;;;13.67;100.00
44934;BME280;30667;43.614;1.442;2023-03-23T07:59:07;99714.50;;;13.74;100.00
44934;BME280;30667;43.614;1.442;2023-03-23T08:01:33;99721.31;;;13.86;100.00
44934;BME280;30667;43.614;1.442;2023-03-23T08:03:58;99718.13;;;14.06;100.00
44934;BME280;30667;43.614;1.442;2023-03-23T08:06:25;99724.66;;;14.05;100.00
44934;BME280;30667;43.614;1.442;2023-03-23T08:08:50;99716.81;;;14.49;100.00
44934;BME280;30667;43.614;1.442;2023-03-23T08:11:16;99714.28;;;14.30;100.00
44934;BME280;30667;43.614;1.442;2023-03-23T08:13:42;99705.25;;;14.21;100.00
44934;BME280;30667;43.614;1.442;2023-03-23T08:16:09;99703.41;;;14.30;100.00
44934;BME280;30667;43.614;1.442;2023-03-23T08:18:35;99695.84;;;14.49;100.00
44934;BME280;30667;43.614;1.442;2023-03-23T08:21:02;99694.44;;;14.83;100.00
44934;BME280;30667;43.614;1.442;2023-03-23T08:23:30;99692.25;;;15.03;100.00
44934;BME280;30667;43.614;1.442;2023-03-23T08:25:56;99686.06;;;14.71;100.00
44934;BME280;30667;43.614;1.442;2023-03-23T08:28:21;99689.13;;;14.78;100.00
44934;BME280;30667;43.614;1.442;2023-03-23T08:30:47;99703.66;;;14.65;100.00
44934;BME280;30667;43.614;1.442;2023-03-23T08:33:13;99708.34;;;14.50;100.00
44934;BME280;30667;43.614;1.442;2023-03-23T08:35:39;99702.03;;;14.64;100.00
44934;BME280;30667;43.614;1.442;2023-03-23T08:38:05;99718.09;;;14.74;100.00
44934;BME280;30667;43.614;1.442;2023-03-23T08:40:31;99714.06;;;15.03;100.00
44934;BME280;30667;43.614;1.442;2023-03-23T08:42:57;99721.19;;;15.21;100.00
44934;BME280;30667;43.614;1.442;2023-03-23T08:45:24;99717.66;;;15.21;100.00
44934;BME280;30667;43.614;1.442;2023-03-23T08:47:50;99730.94;;;15.14;100.00
44934;BME280;30667;43.614;1.442;2023-03-23T08:50:19;99733.66;;;15.14;100.00
44934;BME280;30667;43.614;1.442;2023-03-23T08:52:45;99731.31;;;15.30;100.00
44934;BME280;30667;43.614;1.442;2023-03-23T08:55:11;99740.09;;;15.26;100.00
44934;BME280;30667;43.614;1.442;2023-03-23T08:57:38;99736.91;;;15.24;100.00
44934;BME280;30667;43.614;1.442;2023-03-23T09:00:05;99738.47;;;15.17;100.00
44934;BME280;30667;43.614;1.442;2023-03-23T09:02:46;99743.09;;;15.07;100.00
44934;BME280;30667;43.614;1.442;2023-03-23T09:05:13;99740.88;;;15.10;100.00
44934;BME280;30667;43.614;1.442;2023-03-23T09:07:44;99741.03;;;15.13;100.00
44934;BME280;30667;43.614;1.442;2023-03-23T09:10:12;99742.34;;;15.16;100.00
44934;BME280;30667;43.614;1.442;2023-03-23T09:12:38;99735.06;;;15.02;100.00
44934;BME280;30667;43.614;1.442;2023-03-23T09:15:05;99755.44;;;15.14;100.00
44934;BME280;30667;43.614;1.442;2023-03-23T09:17:40;99741.34;;;15.12;100.00
44934;BME280;30667;43.614;1.442;2023-03-23T09:20:08;99741.81;;;15.05;100.00
44934;BME280;30667;43.614;1.442;2023-03-23T09:22:44;99727.94;;;15.24;100.00
44934;BME280;30667;43.614;1.442;2023-03-23T09:25:13;99730.03;;;15.36;100.00
44934;BME280;30667;43.614;1.442;2023-03-23T09:27:39;99735.19;;;15.37;100.00
44934;BME280;30667;43.614;1.442;2023-03-23T09:30:10;99725.75;;;15.52;100.00
44934;BME280;30667;43.614;1.442;2023-03-23T09:32:37;99724.16;;;15.60;100.00
44934;BME280;30667;43.614;1.442;2023-03-23T09:35:05;99728.78;;;15.51;100.00
44934;BME280;30667;43.614;1.442;2023-03-23T09:37:33;99727.66;;;15.43;100.00
44934;BME280;30667;43.614;1.442;2023-03-23T09:40:01;99732.66;;;15.58;100.00
44934;BME280;30667;43.614;1.442;2023-03-23T09:43:12;99738.09;;;15.58;100.00
44934;BME280;30667;43.614;1.442;2023-03-23T09:45:41;99744.03;;;15.43;100.00
44934;BME280;30667;43.614;1.442;2023-03-23T09:50:40;99755.75;;;15.61;100.00
44934;BME280;30667;43.614;1.442;2023-03-23T09:53:13;99746.94;;;15.73;100.00
44934;BME280;30667;43.614;1.442;2023-03-23T09:55:40;99751.97;;;15.88;100.00
44934;BME280;30667;43.614;1.442;2023-03-23T09:58:20;99748.78;;;15.86;100.00
44934;BME280;30667;43.614;1.442;2023-03-23T10:01:12;99746.00;;;15.69;100.00
44934;BME280;30667;43.614;1.442;2023-03-23T10:03:41;99750.38;;;15.78;100.00
44934;BME280;30667;43.614;1.442;2023-03-23T10:06:10;99750.06;;;15.80;100.00
44934;BME280;30667;43.614;1.442;2023-03-23T10:08:41;99750.50;;;15.73;100.00
44934;BME280;30667;43.614;1.442;2023-03-23T10:11:17;99747.28;;;15.62;100.00
44934;BME280;30667;43.614;1.442;2023-03-23T10:14:06;99738.59;;;15.60;100.00
44934;BME280;30667;43.614;1.442;2023-03-23T10:16:58;99738.13;;;15.67;100.00
44934;BME280;30667;43.614;1.442;2023-03-23T10:22:09;99730.78;;;15.85;100.00
44934;BME280;30667;43.614;1.442;2023-03-23T10:24:43;99720.84;;;15.80;100.00
44934;BME280;30667;43.614;1.442;2023-03-23T10:27:35;99735.63;;;15.88;100.00
44934;BME280;30667;43.614;1.442;2023-03-23T10:32:45;99744.13;;;16.04;100.00
44934;BME280;30667;43.614;1.442;2023-03-23T10:35:19;99743.16;;;15.91;100.00
44934;BME280;30667;43.614;1.442;2023-03-23T10:37:50;99741.06;;;15.79;100.00
44934;BME280;30667;43.614;1.442;2023-03-23T10:40:22;99737.38;;;15.84;100.00
44934;BME280;30667;43.614;1.442;2023-03-23T10:42:52;99742.06;;;15.92;100.00
44934;BME280;30667;43.614;1.442;2023-03-23T10:45:26;99746.19;;;15.98;100.00
44934;BME280;30667;43.614;1.442;2023-03-23T10:50:31;99747.16;;;16.11;100.00
44934;BME280;30667;43.614;1.442;2023-03-23T10:52:59;99738.97;;;16.29;100.00
44934;BME280;30667;43.614;1.442;2023-03-23T10:55:38;99729.50;;;16.35;100.00
44934;BME280;30667;43.614;1.442;2023-03-23T10:58:11;99730.13;;;16.41;100.00
44934;BME280;30667;43.614;1.442;2023-03-23T11:00:45;99713.56;;;16.46;100.00
44934;BME280;30667;43.614;1.442;2023-03-23T11:05:58;99704.75;;;16.49;100.00
44934;BME280;30667;43.614;1.442;2023-03-23T11:08:29;99701.88;;;16.45;100.00
44934;BME280;30667;43.614;1.442;2023-03-23T11:13:42;99696.38;;;16.54;100.00
44934;BME280;30667;43.614;1.442;2023-03-23T11:16:25;99690.72;;;16.59;100.00
44934;BME280;30667;43.614;1.442;2023-03-23T11:18:53;99681.09;;;16.62;100.00
44934;BME280;30667;43.614;1.442;2023-03-23T11:21:21;99679.78;;;16.68;100.00
44934;BME280;30667;43.614;1.442;2023-03-23T11:23:54;99671.78;;;16.54;100.00
44934;BME280;30667;43.614;1.442;2023-03-23T11:26:34;99658.28;;;16.58;100.00
44934;BME280;30667;43.614;1.442;2023-03-23T11:29:12;99670.03;;;16.58;100.00
44934;BME280;30667;43.614;1.442;2023-03-23T11:31:47;99667.28;;;16.58;100.00
44934;BME280;30667;43.614;1.442;2023-03-23T11:34:32;99669.50;;;16.65;100.00
44934;BME280;30667;43.614;1.442;2023-03-23T11:37:02;99665.50;;;16.62;100.00
44934;BME280;30667;43.614;1.442;2023-03-23T11:42:25;99651.50;;;16.64;100.00
44934;BME280;30667;43.614;1.442;2023-03-23T11:50:34;99651.03;;;16.70;100.00
44934;BME280;30667;43.614;1.442;2023-03-23T11:58:21;99641.03;;;16.75;100.00
44934;BME280;30667;43.614;1.442;2023-03-23T12:00:59;99638.94;;;16.80;100.00
44934;BME280;30667;43.614;1.442;2023-03-23T12:03:56;99622.53;;;16.80;100.00
44934;BME280;30667;43.614;1.442;2023-03-23T12:06:38;99633.13;;;16.82;100.00
44934;BME280;30667;43.614;1.442;2023-03-23T12:09:31;99627.03;;;16.76;100.00
44934;BME280;30667;43.614;1.442;2023-03-23T12:12:17;99626.25;;;16.76;100.00
44934;BME280;30667;43.614;1.442;2023-03-23T12:34:58;99586.19;;;16.88;100.00
44934;BME280;30667;43.614;1.442;2023-03-23T12:42:58;99560.59;;;16.93;100.00
44934;BME280;30667;43.614;1.442;2023-03-23T12:48:31;99548.19;;;16.96;100.00
44934;BME280;30667;43.614;1.442;2023-03-23T12:56:36;99532.63;;;16.96;100.00
44934;BME280;30667;43.614;1.442;2023-03-23T12:59:12;99537.09;;;17.01;100.00
44934;BME280;30667;43.614;1.442;2023-03-23T13:01:43;99539.81;;;17.01;100.00
44934;BME280;30667;43.614;1.442;2023-03-23T13:06:41;99533.09;;;16.98;100.00
44934;BME280;30667;43.614;1.442;2023-03-23T13:11:42;99520.22;;;16.99;100.00
44934;BME280;30667;43.614;1.442;2023-03-23T13:22:46;99526.22;;;16.92;100.00
44934;BME280;30667;43.614;1.442;2023-03-23T13:25:27;99515.41;;;16.96;100.00
44934;BME280;30667;43.614;1.442;2023-03-23T13:27:56;99514.94;;;16.94;100.00
44934;BME280;30667;43.614;1.442;2023-03-23T13:30:23;99513.16;;;16.98;100.00
44934;BME280;30667;43.614;1.442;2023-03-23T13:32:49;99507.38;;;16.99;100.00
44934;BME280;30667;43.614;1.442;2023-03-23T13:35:18;99499.00;;;16.96;100.00
44934;BME280;30667;43.614;1.442;2023-03-23T13:37:51;99495.47;;;16.95;100.00
44934;BME280;30667;43.614;1.442;2023-03-23T13:40:29;99489.47;;;17.02;100.00
44934;BME280;30667;43.614;1.442;2023-03-23T13:42:58;99490.09;;;17.08;100.00
44934;BME280;30667;43.614;1.442;2023-03-23T13:45:46;99484.28;;;17.09;100.00
44934;BME280;30667;43.614;1.442;2023-03-23T13:51:04;99477.50;;;17.15;100.00
44934;BME280;30667;43.614;1.442;2023-03-23T13:53:35;99472.81;;;17.16;100.00
44934;BME280;30667;43.614;1.442;2023-03-23T13:59:17;99463.00;;;17.15;100.00
44934;BME280;30667;43.614;1.442;2023-03-23T14:02:20;99463.34;;;17.13;100.00
44934;BME280;30667;43.614;1.442;2023-03-23T14:04:42;99462.22;;;17.14;100.00
44934;BME280;30667;43.614;1.442;2023-03-23T14:07:11;99454.81;;;17.15;100.00
44934;BME280;30667;43.614;1.442;2023-03-23T14:09:43;99446.81;;;17.10;100.00
44934;BME280;30667;43.614;1.442;2023-03-23T14:12:27;99440.00;;;17.16;100.00
44934;BME280;30667;43.614;1.442;2023-03-23T14:15:00;99432.88;;;17.23;100.00
44934;BME280;30667;43.614;1.442;2023-03-23T14:17:31;99422.84;;;17.28;100.00
44934;BME280;30667;43.614;1.442;2023-03-23T14:19:59;99432.09;;;17.35;100.00
44934;BME280;30667;43.614;1.442;2023-03-23T14:22:34;99421.28;;;17.39;100.00
44934;BME280;30667;43.614;1.442;2023-03-23T14:27:35;99419.09;;;17.32;100.00
44934;BME280;30667;43.614;1.442;2023-03-23T14:30:06;99425.84;;;17.35;100.00
44934;BME280;30667;43.614;1.442;2023-03-23T14:32:32;99431.31;;;17.35;100.00
44934;BME280;30667;43.614;1.442;2023-03-23T14:35:04;99424.34;;;17.37;100.00
44934;BME280;30667;43.614;1.442;2023-03-23T14:37:32;99423.31;;;17.30;100.00
44934;BME280;30667;43.614;1.442;2023-03-23T14:40:01;99420.03;;;17.36;100.00
44934;BME280;30667;43.614;1.442;2023-03-23T14:42:32;99415.13;;;17.30;100.00
44934;BME280;30667;43.614;1.442;2023-03-23T14:45:00;99413.75;;;17.36;100.00
44934;BME280;30667;43.614;1.442;2023-03-23T14:47:33;99412.50;;;17.33;100.00